sensor_id;sensor_type;location;lat;lon;timestamp;temperature;humidity
10062;DHT22;5070;52.382;5.270;2023-09-12T00:00:52;26.60;86.40
10062;DHT22;5070;52.382;5.270;2023-09-12T00:03:22;26.60;86.40
10062;DHT22;5070;52.382;5.270;2023-09-12T00:05:51;26.60;86.40
10062;DHT22;5070;52.382;5.270;2023-09-12T00:08:19;26.60;86.20
10062;DHT22;5070;52.382;5.270;2023-09-12T00:10:57;26.60;86.30
10062;DHT22;5070;52.382;5.270;2023-09-12T00:13:25;26.60;86.20
10062;DHT22;5070;52.382;5.270;2023-09-12T00:15:55;26.60;86.20
10062;DHT22;5070;52.382;5.270;2023-09-12T00:18:23;26.60;86.20
10062;DHT22;5070;52.382;5.270;2023-09-12T00:20:52;26.60;86.30
10062;DHT22;5070;52.382;5.270;2023-09-12T00:23:21;26.60;86.20
10062;DHT22;5070;52.382;5.270;2023-09-12T00:25:50;26.60;86.10
10062;DHT22;5070;52.382;5.270;2023-09-12T00:28:18;26.50;85.90
10062;DHT22;5070;52.382;5.270;2023-09-12T00:30:47;26.50;85.90
10062;DHT22;5070;52.382;5.270;2023-09-12T00:33:16;26.50;85.80
10062;DHT22;5070;52.382;5.270;2023-09-12T00:35:44;26.50;85.80
10062;DHT22;5070;52.382;5.270;2023-09-12T00:38:12;26.50;85.80
10062;DHT22;5070;52.382;5.270;2023-09-12T00:40:41;26.50;86.00
10062;DHT22;5070;52.382;5.270;2023-09-12T00:43:09;26.50;85.80
10062;DHT22;5070;52.382;5.270;2023-09-12T00:45:38;26.50;86.00
10062;DHT22;5070;52.382;5.270;2023-09-12T00:48:06;26.50;86.00
10062;DHT22;5070;52.382;5.270;2023-09-12T00:50:37;26.50;85.90
10062;DHT22;5070;52.382;5.270;2023-09-12T00:53:05;26.50;85.90
10062;DHT22;5070;52.382;5.270;2023-09-12T00:55:37;26.50;85.70
10062;DHT22;5070;52.382;5.270;2023-09-12T00:58:08;26.50;85.90
10062;DHT22;5070;52.382;5.270;2023-09-12T01:00:36;26.50;86.60
10062;DHT22;5070;52.382;5.270;2023-09-12T01:03:04;26.50;85.80
10062;DHT22;5070;52.382;5.270;2023-09-12T01:05:33;26.50;85.80
10062;DHT22;5070;52.382;5.270;2023-09-12T01:08:03;26.50;85.80
10062;DHT22;5070;52.382;5.270;2023-09-12T01:10:31;26.50;86.00
10062;DHT22;5070;52.382;5.270;2023-09-12T01:12:59;26.50;86.60
10062;DHT22;5070;52.382;5.270;2023-09-12T01:15:27;26.50;85.90
10062;DHT22;5070;52.382;5.270;2023-09-12T01:17:56;26.50;85.90
10062;DHT22;5070;52.382;5.270;2023-09-12T01:20:27;26.50;86.70
10062;DHT22;5070;52.382;5.270;2023-09-12T01:23:05;26.50;85.80
10062;DHT22;5070;52.382;5.270;2023-09-12T01:28:35;26.40;85.30
10062;DHT22;5070;52.382;5.270;2023-09-12T01:31:06;26.40;85.50
10062;DHT22;5070;52.382;5.270;2023-09-12T01:33:34;26.40;85.70
10062;DHT22;5070;52.382;5.270;2023-09-12T01:36:03;26.40;85.40
10062;DHT22;5070;52.382;5.270;2023-09-12T01:38:31;26.40;85.50
10062;DHT22;5070;52.382;5.270;2023-09-12T01:40:59;26.40;85.40
10062;DHT22;5070;52.382;5.270;2023-09-12T01:43:29;26.40;85.30
10062;DHT22;5070;52.382;5.270;2023-09-12T01:46:00;26.40;85.30
10062;DHT22;5070;52.382;5.270;2023-09-12T01:48:33;26.40;86.10
10062;DHT22;5070;52.382;5.270;2023-09-12T01:51:03;26.40;85.30
10062;DHT22;5070;52.382;5.270;2023-09-12T01:53:33;26.40;85.20
10062;DHT22;5070;52.382;5.270;2023-09-12T01:56:03;26.40;85.10
10062;DHT22;5070;52.382;5.270;2023-09-12T01:58:31;26.40;85.10
10062;DHT22;5070;52.382;5.270;2023-09-12T02:01:01;26.40;85.10
10062;DHT22;5070;52.382;5.270;2023-09-12T02:03:29;26.40;85.00
10062;DHT22;5070;52.382;5.270;2023-09-12T02:05:58;26.40;85.20
10062;DHT22;5070;52.382;5.270;2023-09-12T02:08:26;26.40;85.10
10062;DHT22;5070;52.382;5.270;2023-09-12T02:10:54;26.40;85.00
10062;DHT22;5070;52.382;5.270;2023-09-12T02:13:22;26.30;84.90
10062;DHT22;5070;52.382;5.270;2023-09-12T02:15:58;26.40;85.00
10062;DHT22;5070;52.382;5.270;2023-09-12T02:18:28;26.30;85.00
10062;DHT22;5070;52.382;5.270;2023-09-12T02:20:58;26.30;85.10
10062;DHT22;5070;52.382;5.270;2023-09-12T02:23:26;26.30;85.10
10062;DHT22;5070;52.382;5.270;2023-09-12T02:25:55;26.30;84.80
10062;DHT22;5070;52.382;5.270;2023-09-12T02:28:23;26.30;84.80
10062;DHT22;5070;52.382;5.270;2023-09-12T02:30:51;26.30;84.60
10062;DHT22;5070;52.382;5.270;2023-09-12T02:33:20;26.30;84.80
10062;DHT22;5070;52.382;5.270;2023-09-12T02:35:50;26.30;84.60
10062;DHT22;5070;52.382;5.270;2023-09-12T02:38:18;26.30;84.60
10062;DHT22;5070;52.382;5.270;2023-09-12T02:40:46;26.30;84.50
10062;DHT22;5070;52.382;5.270;2023-09-12T02:43:14;26.30;84.40
10062;DHT22;5070;52.382;5.270;2023-09-12T02:45:42;26.30;84.40
10062;DHT22;5070;52.382;5.270;2023-09-12T02:48:11;26.30;84.50
10062;DHT22;5070;52.382;5.270;2023-09-12T02:50:39;26.30;84.50
10062;DHT22;5070;52.382;5.270;2023-09-12T02:53:08;26.30;84.40
10062;DHT22;5070;52.382;5.270;2023-09-12T02:55:39;26.30;84.70
10062;DHT22;5070;52.382;5.270;2023-09-12T02:58:07;26.30;84.90
10062;DHT22;5070;52.382;5.270;2023-09-12T03:00:38;26.30;84.60
10062;DHT22;5070;52.382;5.270;2023-09-12T03:03:07;26.20;84.50
10062;DHT22;5070;52.382;5.270;2023-09-12T03:05:36;26.20;84.70
10062;DHT22;5070;52.382;5.270;2023-09-12T03:08:04;26.20;84.40
10062;DHT22;5070;52.382;5.270;2023-09-12T03:10:34;26.20;84.10
10062;DHT22;5070;52.382;5.270;2023-09-12T03:13:02;26.20;84.10
10062;DHT22;5070;52.382;5.270;2023-09-12T03:15:35;26.20;84.30
10062;DHT22;5070;52.382;5.270;2023-09-12T03:18:07;26.20;84.30
10062;DHT22;5070;52.382;5.270;2023-09-12T03:20:37;26.20;84.30
10062;DHT22;5070;52.382;5.270;2023-09-12T03:23:06;26.20;84.20
10062;DHT22;5070;52.382;5.270;2023-09-12T03:25:37;26.20;84.30
10062;DHT22;5070;52.382;5.270;2023-09-12T03:28:06;26.20;83.80
10062;DHT22;5070;52.382;5.270;2023-09-12T03:30:36;26.20;83.80
10062;DHT22;5070;52.382;5.270;2023-09-12T03:33:06;26.20;83.70
10062;DHT22;5070;52.382;5.270;2023-09-12T03:35:34;26.20;83.70
10062;DHT22;5070;52.382;5.270;2023-09-12T03:38:03;26.20;83.80
10062;DHT22;5070;52.382;5.270;2023-09-12T03:40:31;26.20;84.00
10062;DHT22;5070;52.382;5.270;2023-09-12T03:43:01;26.20;83.70
10062;DHT22;5070;52.382;5.270;2023-09-12T03:45:29;26.20;83.90
10062;DHT22;5070;52.382;5.270;2023-09-12T03:47:57;26.10;83.80
10062;DHT22;5070;52.382;5.270;2023-09-12T03:50:25;26.20;83.90
10062;DHT22;5070;52.382;5.270;2023-09-12T03:52:53;26.20;83.90
10062;DHT22;5070;52.382;5.270;2023-09-12T03:55:21;26.10;83.70
10062;DHT22;5070;52.382;5.270;2023-09-12T03:57:49;26.10;83.80
10062;DHT22;5070;52.382;5.270;2023-09-12T04:00:19;26.20;84.20
10062;DHT22;5070;52.382;5.270;2023-09-12T04:02:49;26.10;84.10
10062;DHT22;5070;52.382;5.270;2023-09-12T04:05:17;26.10;84.50
10062;DHT22;5070;52.382;5.270;2023-09-12T04:07:45;26.10;84.20
10062;DHT22;5070;52.382;5.270;2023-09-12T04:10:14;26.10;84.60
10062;DHT22;5070;52.382;5.270;2023-09-12T04:12:42;26.10;84.40
10062;DHT22;5070;52.382;5.270;2023-09-12T04:15:10;26.10;84.50
10062;DHT22;5070;52.382;5.270;2023-09-12T04:17:40;26.10;84.50
10062;DHT22;5070;52.382;5.270;2023-09-12T04:20:09;26.10;84.50
10062;DHT22;5070;52.382;5.270;2023-09-12T04:22:41;26.10;84.50
10062;DHT22;5070;52.382;5.270;2023-09-12T04:25:10;26.10;85.10
10062;DHT22;5070;52.382;5.270;2023-09-12T04:27:38;26.10;84.60
10062;DHT22;5070;52.382;5.270;2023-09-12T04:30:07;26.10;84.50
10062;DHT22;5070;52.382;5.270;2023-09-12T04:32:36;26.10;84.80
10062;DHT22;5070;52.382;5.270;2023-09-12T04:35:06;26.10;84.80
10062;DHT22;5070;52.382;5.270;2023-09-12T04:37:35;26.10;84.80
10062;DHT22;5070;52.382;5.270;2023-09-12T04:40:04;26.10;84.80
10062;DHT22;5070;52.382;5.270;2023-09-12T04:42:33;26.10;85.20
10062;DHT22;5070;52.382;5.270;2023-09-12T04:45:00;26.10;85.10
10062;DHT22;5070;52.382;5.270;2023-09-12T04:47:28;26.10;85.30
10062;DHT22;5070;52.382;5.270;2023-09-12T04:49:56;26.10;85.20
10062;DHT22;5070;52.382;5.270;2023-09-12T04:52:26;26.10;85.20
10062;DHT22;5070;52.382;5.270;2023-09-12T04:54:54;26.10;85.30
10062;DHT22;5070;52.382;5.270;2023-09-12T04:57:22;26.10;85.20
10062;DHT22;5070;52.382;5.270;2023-09-12T04:59:51;26.10;85.20
10062;DHT22;5070;52.382;5.270;2023-09-12T05:02:19;26.10;85.10
10062;DHT22;5070;52.382;5.270;2023-09-12T05:04:47;26.10;85.20
10062;DHT22;5070;52.382;5.270;2023-09-12T05:07:16;26.10;85.20
10062;DHT22;5070;52.382;5.270;2023-09-12T05:09:45;26.10;84.90
10062;DHT22;5070;52.382;5.270;2023-09-12T05:12:13;26.10;85.10
10062;DHT22;5070;52.382;5.270;2023-09-12T05:14:41;26.10;84.70
10062;DHT22;5070;52.382;5.270;2023-09-12T05:17:09;26.10;84.80
10062;DHT22;5070;52.382;5.270;2023-09-12T05:19:37;26.10;84.90
10062;DHT22;5070;52.382;5.270;2023-09-12T05:22:06;26.00;84.80
10062;DHT22;5070;52.382;5.270;2023-09-12T05:24:34;26.10;85.00
10062;DHT22;5070;52.382;5.270;2023-09-12T05:27:03;26.00;85.00
10062;DHT22;5070;52.382;5.270;2023-09-12T05:29:32;26.00;85.30
10062;DHT22;5070;52.382;5.270;2023-09-12T05:32:01;26.00;85.70
10062;DHT22;5070;52.382;5.270;2023-09-12T05:34:29;26.00;85.50
10062;DHT22;5070;52.382;5.270;2023-09-12T05:36:57;26.00;85.40
10062;DHT22;5070;52.382;5.270;2023-09-12T05:39:26;26.10;85.90
10062;DHT22;5070;52.382;5.270;2023-09-12T05:41:54;26.00;85.60
10062;DHT22;5070;52.382;5.270;2023-09-12T05:44:23;26.00;85.50
10062;DHT22;5070;52.382;5.270;2023-09-12T05:46:52;26.00;85.50
10062;DHT22;5070;52.382;5.270;2023-09-12T05:49:20;26.00;85.50
10062;DHT22;5070;52.382;5.270;2023-09-12T05:51:48;26.10;85.90
10062;DHT22;5070;52.382;5.270;2023-09-12T05:54:16;26.10;85.80
10062;DHT22;5070;52.382;5.270;2023-09-12T05:56:46;26.10;85.80
10062;DHT22;5070;52.382;5.270;2023-09-12T05:59:15;26.10;85.90
10062;DHT22;5070;52.382;5.270;2023-09-12T06:01:45;26.10;86.20
10062;DHT22;5070;52.382;5.270;2023-09-12T06:04:13;26.10;86.20
10062;DHT22;5070;52.382;5.270;2023-09-12T06:06:41;26.10;86.20
10062;DHT22;5070;52.382;5.270;2023-09-12T06:09:09;26.10;86.20
10062;DHT22;5070;52.382;5.270;2023-09-12T06:11:37;26.10;86.50
10062;DHT22;5070;52.382;5.270;2023-09-12T06:14:06;26.10;86.80
10062;DHT22;5070;52.382;5.270;2023-09-12T06:16:34;26.10;86.50
10062;DHT22;5070;52.382;5.270;2023-09-12T06:19:03;26.10;86.40
10062;DHT22;5070;52.382;5.270;2023-09-12T06:21:31;26.10;86.50
10062;DHT22;5070;52.382;5.270;2023-09-12T06:24:10;26.10;86.60
10062;DHT22;5070;52.382;5.270;2023-09-12T06:26:39;26.10;86.90
10062;DHT22;5070;52.382;5.270;2023-09-12T06:29:07;26.10;86.70
10062;DHT22;5070;52.382;5.270;2023-09-12T06:31:36;26.10;86.70
10062;DHT22;5070;52.382;5.270;2023-09-12T06:34:05;26.10;87.20
10062;DHT22;5070;52.382;5.270;2023-09-12T06:36:33;26.10;86.70
10062;DHT22;5070;52.382;5.270;2023-09-12T06:39:02;26.00;86.20
10062;DHT22;5070;52.382;5.270;2023-09-12T06:41:32;26.00;86.40
10062;DHT22;5070;52.382;5.270;2023-09-12T06:44:00;26.00;86.10
10062;DHT22;5070;52.382;5.270;2023-09-12T06:46:30;26.00;86.30
10062;DHT22;5070;52.382;5.270;2023-09-12T06:48:58;26.00;86.20
10062;DHT22;5070;52.382;5.270;2023-09-12T06:51:27;26.00;86.40
10062;DHT22;5070;52.382;5.270;2023-09-12T06:54:00;26.00;87.80
10062;DHT22;5070;52.382;5.270;2023-09-12T06:56:29;26.00;86.00
10062;DHT22;5070;52.382;5.270;2023-09-12T06:58:57;26.00;86.10
10062;DHT22;5070;52.382;5.270;2023-09-12T07:01:26;26.00;86.10
10062;DHT22;5070;52.382;5.270;2023-09-12T07:03:54;26.00;86.00
10062;DHT22;5070;52.382;5.270;2023-09-12T07:06:23;26.00;86.00
10062;DHT22;5070;52.382;5.270;2023-09-12T07:08:52;26.00;86.00
10062;DHT22;5070;52.382;5.270;2023-09-12T07:11:20;26.00;85.90
10062;DHT22;5070;52.382;5.270;2023-09-12T07:13:50;26.00;86.10
10062;DHT22;5070;52.382;5.270;2023-09-12T07:16:19;26.10;85.90
10062;DHT22;5070;52.382;5.270;2023-09-12T07:18:48;26.10;86.00
10062;DHT22;5070;52.382;5.270;2023-09-12T07:21:17;26.10;86.10
10062;DHT22;5070;52.382;5.270;2023-09-12T07:23:47;26.10;86.20
10062;DHT22;5070;52.382;5.270;2023-09-12T07:26:16;26.10;86.10
10062;DHT22;5070;52.382;5.270;2023-09-12T07:28:45;26.10;86.00
10062;DHT22;5070;52.382;5.270;2023-09-12T07:31:14;26.10;86.00
10062;DHT22;5070;52.382;5.270;2023-09-12T07:33:42;26.10;86.30
10062;DHT22;5070;52.382;5.270;2023-09-12T07:36:11;26.10;86.40
10062;DHT22;5070;52.382;5.270;2023-09-12T07:38:39;26.10;86.90
10062;DHT22;5070;52.382;5.270;2023-09-12T07:41:08;26.10;86.90
10062;DHT22;5070;52.382;5.270;2023-09-12T07:43:38;26.10;86.50
10062;DHT22;5070;52.382;5.270;2023-09-12T07:46:07;26.10;87.00
10062;DHT22;5070;52.382;5.270;2023-09-12T07:48:35;26.10;87.30
10062;DHT22;5070;52.382;5.270;2023-09-12T07:51:11;26.10;87.30
10062;DHT22;5070;52.382;5.270;2023-09-12T07:53:41;26.10;87.60
10062;DHT22;5070;52.382;5.270;2023-09-12T07:56:10;26.10;87.70
10062;DHT22;5070;52.382;5.270;2023-09-12T07:58:39;26.10;88.10
10062;DHT22;5070;52.382;5.270;2023-09-12T08:01:08;26.10;88.20
10062;DHT22;5070;52.382;5.270;2023-09-12T08:03:39;26.20;88.20
10062;DHT22;5070;52.382;5.270;2023-09-12T08:06:08;26.20;89.20
10062;DHT22;5070;52.382;5.270;2023-09-12T08:08:36;26.20;88.10
10062;DHT22;5070;52.382;5.270;2023-09-12T08:11:04;26.20;87.80
10062;DHT22;5070;52.382;5.270;2023-09-12T08:13:32;26.20;87.80
10062;DHT22;5070;52.382;5.270;2023-09-12T08:16:02;26.20;87.60
10062;DHT22;5070;52.382;5.270;2023-09-12T08:18:30;26.20;87.50
10062;DHT22;5070;52.382;5.270;2023-09-12T08:20:58;26.20;87.80
10062;DHT22;5070;52.382;5.270;2023-09-12T08:23:26;26.20;87.80
10062;DHT22;5070;52.382;5.270;2023-09-12T08:25:54;26.20;88.00
10062;DHT22;5070;52.382;5.270;2023-09-12T08:28:23;26.20;88.10
10062;DHT22;5070;52.382;5.270;2023-09-12T08:30:51;26.20;88.00
10062;DHT22;5070;52.382;5.270;2023-09-12T08:33:21;26.20;88.20
10062;DHT22;5070;52.382;5.270;2023-09-12T08:36:06;26.20;88.90
10062;DHT22;5070;52.382;5.270;2023-09-12T08:38:34;26.20;88.00
10062;DHT22;5070;52.382;5.270;2023-09-12T08:41:03;26.20;88.00
10062;DHT22;5070;52.382;5.270;2023-09-12T08:43:33;26.30;88.20
10062;DHT22;5070;52.382;5.270;2023-09-12T08:46:01;26.30;88.40
10062;DHT22;5070;52.382;5.270;2023-09-12T08:48:31;26.30;88.40
10062;DHT22;5070;52.382;5.270;2023-09-12T08:51:00;26.30;88.40
10062;DHT22;5070;52.382;5.270;2023-09-12T08:53:30;26.30;89.60
10062;DHT22;5070;52.382;5.270;2023-09-12T08:55:58;26.30;88.90
10062;DHT22;5070;52.382;5.270;2023-09-12T08:58:31;26.30;88.70
10062;DHT22;5070;52.382;5.270;2023-09-12T09:01:00;26.30;88.70
10062;DHT22;5070;52.382;5.270;2023-09-12T09:03:31;26.30;88.20
10062;DHT22;5070;52.382;5.270;2023-09-12T09:06:00;26.30;88.50
10062;DHT22;5070;52.382;5.270;2023-09-12T09:08:30;26.30;88.50
10062;DHT22;5070;52.382;5.270;2023-09-12T09:10:59;26.30;88.60
10062;DHT22;5070;52.382;5.270;2023-09-12T09:13:30;26.30;88.50
10062;DHT22;5070;52.382;5.270;2023-09-12T09:16:11;26.30;88.70
10062;DHT22;5070;52.382;5.270;2023-09-12T09:18:54;26.30;88.60
10062;DHT22;5070;52.382;5.270;2023-09-12T09:21:25;26.30;88.60
10062;DHT22;5070;52.382;5.270;2023-09-12T09:23:54;26.40;88.60
10062;DHT22;5070;52.382;5.270;2023-09-12T09:26:22;26.40;88.60
10062;DHT22;5070;52.382;5.270;2023-09-12T09:29:05;26.40;88.60
10062;DHT22;5070;52.382;5.270;2023-09-12T09:31:34;26.40;88.60
10062;DHT22;5070;52.382;5.270;2023-09-12T09:34:03;26.40;88.50
10062;DHT22;5070;52.382;5.270;2023-09-12T09:36:31;26.40;88.90
10062;DHT22;5070;52.382;5.270;2023-09-12T09:39:02;26.40;88.70
10062;DHT22;5070;52.382;5.270;2023-09-12T09:41:31;26.40;88.70
10062;DHT22;5070;52.382;5.270;2023-09-12T09:44:00;26.40;89.20
10062;DHT22;5070;52.382;5.270;2023-09-12T09:46:28;26.40;89.10
10062;DHT22;5070;52.382;5.270;2023-09-12T09:48:56;26.40;89.10
10062;DHT22;5070;52.382;5.270;2023-09-12T09:51:29;26.40;89.30
10062;DHT22;5070;52.382;5.270;2023-09-12T09:53:58;26.40;89.20
10062;DHT22;5070;52.382;5.270;2023-09-12T09:56:27;26.40;89.50
10062;DHT22;5070;52.382;5.270;2023-09-12T09:58:57;26.40;89.70
10062;DHT22;5070;52.382;5.270;2023-09-12T10:01:28;26.40;89.30
10062;DHT22;5070;52.382;5.270;2023-09-12T10:03:58;26.40;89.50
10062;DHT22;5070;52.382;5.270;2023-09-12T10:06:29;26.40;89.60
10062;DHT22;5070;52.382;5.270;2023-09-12T10:09:05;26.50;89.50
10062;DHT22;5070;52.382;5.270;2023-09-12T10:11:35;26.50;89.40
10062;DHT22;5070;52.382;5.270;2023-09-12T10:14:05;26.50;89.20
10062;DHT22;5070;52.382;5.270;2023-09-12T10:16:35;26.50;89.20
10062;DHT22;5070;52.382;5.270;2023-09-12T10:19:09;26.50;89.40
10062;DHT22;5070;52.382;5.270;2023-09-12T10:21:46;26.50;89.30
10062;DHT22;5070;52.382;5.270;2023-09-12T10:24:15;26.50;89.70
10062;DHT22;5070;52.382;5.270;2023-09-12T10:26:43;26.50;89.20
10062;DHT22;5070;52.382;5.270;2023-09-12T10:29:13;26.50;89.40
10062;DHT22;5070;52.382;5.270;2023-09-12T10:31:42;26.60;90.10
10062;DHT22;5070;52.382;5.270;2023-09-12T10:34:12;26.50;89.70
10062;DHT22;5070;52.382;5.270;2023-09-12T10:36:46;26.50;90.30
10062;DHT22;5070;52.382;5.270;2023-09-12T10:39:15;26.50;90.40
10062;DHT22;5070;52.382;5.270;2023-09-12T10:41:43;26.50;90.10
10062;DHT22;5070;52.382;5.270;2023-09-12T10:44:15;26.50;90.30
10062;DHT22;5070;52.382;5.270;2023-09-12T10:46:44;26.50;90.60
10062;DHT22;5070;52.382;5.270;2023-09-12T10:49:13;26.50;90.60
10062;DHT22;5070;52.382;5.270;2023-09-12T10:51:43;26.50;90.70
10062;DHT22;5070;52.382;5.270;2023-09-12T10:54:15;26.50;90.90
10062;DHT22;5070;52.382;5.270;2023-09-12T10:56:44;26.50;90.60
10062;DHT22;5070;52.382;5.270;2023-09-12T10:59:17;26.50;90.00
10062;DHT22;5070;52.382;5.270;2023-09-12T11:01:45;26.50;90.00
10062;DHT22;5070;52.382;5.270;2023-09-12T11:04:31;26.50;90.60
10062;DHT22;5070;52.382;5.270;2023-09-12T11:07:01;26.50;90.20
10062;DHT22;5070;52.382;5.270;2023-09-12T11:09:30;26.50;90.30
10062;DHT22;5070;52.382;5.270;2023-09-12T11:12:01;26.50;90.60
10062;DHT22;5070;52.382;5.270;2023-09-12T11:14:30;26.50;90.30
10062;DHT22;5070;52.382;5.270;2023-09-12T11:17:21;26.50;90.30
10062;DHT22;5070;52.382;5.270;2023-09-12T11:19:51;26.50;90.30
10062;DHT22;5070;52.382;5.270;2023-09-12T11:22:26;26.50;90.00
10062;DHT22;5070;52.382;5.270;2023-09-12T11:24:59;26.50;90.10
10062;DHT22;5070;52.382;5.270;2023-09-12T11:27:31;26.50;90.00
10062;DHT22;5070;52.382;5.270;2023-09-12T11:30:07;26.50;90.10
10062;DHT22;5070;52.382;5.270;2023-09-12T11:32:36;26.50;90.00
10062;DHT22;5070;52.382;5.270;2023-09-12T11:35:05;26.50;89.90
10062;DHT22;5070;52.382;5.270;2023-09-12T11:37:34;26.50;90.00
10062;DHT22;5070;52.382;5.270;2023-09-12T11:40:17;26.50;90.10
10062;DHT22;5070;52.382;5.270;2023-09-12T11:42:45;26.50;90.90
10062;DHT22;5070;52.382;5.270;2023-09-12T11:45:18;26.50;90.80
10062;DHT22;5070;52.382;5.270;2023-09-12T11:47:47;26.50;90.80
10062;DHT22;5070;52.382;5.270;2023-09-12T11:50:28;26.40;92.00
10062;DHT22;5070;52.382;5.270;2023-09-12T11:53:01;26.30;93.20
10062;DHT22;5070;52.382;5.270;2023-09-12T11:55:33;26.30;93.20
10062;DHT22;5070;52.382;5.270;2023-09-12T11:58:02;26.30;92.20
10062;DHT22;5070;52.382;5.270;2023-09-12T12:00:31;26.30;91.30
10062;DHT22;5070;52.382;5.270;2023-09-12T12:03:00;26.30;91.20
10062;DHT22;5070;52.382;5.270;2023-09-12T12:05:28;26.30;91.10
10062;DHT22;5070;52.382;5.270;2023-09-12T12:07:58;26.30;91.40
10062;DHT22;5070;52.382;5.270;2023-09-12T12:10:51;26.30;91.30
10062;DHT22;5070;52.382;5.270;2023-09-12T12:13:20;26.30;91.10
10062;DHT22;5070;52.382;5.270;2023-09-12T12:15:50;26.30;91.20
10062;DHT22;5070;52.382;5.270;2023-09-12T12:18:19;26.20;90.80
10062;DHT22;5070;52.382;5.270;2023-09-12T12:20:47;26.20;90.80
10062;DHT22;5070;52.382;5.270;2023-09-12T12:23:15;26.30;90.50
10062;DHT22;5070;52.382;5.270;2023-09-12T12:25:43;26.30;90.20
10062;DHT22;5070;52.382;5.270;2023-09-12T12:28:13;26.30;90.10
10062;DHT22;5070;52.382;5.270;2023-09-12T12:30:41;26.30;89.80
10062;DHT22;5070;52.382;5.270;2023-09-12T12:33:10;26.30;89.90
10062;DHT22;5070;52.382;5.270;2023-09-12T12:36:01;26.30;89.60
10062;DHT22;5070;52.382;5.270;2023-09-12T12:38:33;26.30;89.60
10062;DHT22;5070;52.382;5.270;2023-09-12T12:41:05;26.30;90.00
10062;DHT22;5070;52.382;5.270;2023-09-12T12:43:34;26.30;90.30
10062;DHT22;5070;52.382;5.270;2023-09-12T12:46:03;26.30;90.70
10062;DHT22;5070;52.382;5.270;2023-09-12T12:48:32;26.30;90.70
10062;DHT22;5070;52.382;5.270;2023-09-12T12:51:12;26.30;91.10
10062;DHT22;5070;52.382;5.270;2023-09-12T12:53:45;26.30;91.30
10062;DHT22;5070;52.382;5.270;2023-09-12T12:56:20;26.20;91.70
10062;DHT22;5070;52.382;5.270;2023-09-12T12:58:51;26.20;91.80
10062;DHT22;5070;52.382;5.270;2023-09-12T13:01:21;26.20;91.90
10062;DHT22;5070;52.382;5.270;2023-09-12T13:03:49;26.20;92.30
10062;DHT22;5070;52.382;5.270;2023-09-12T13:06:18;26.20;92.10
10062;DHT22;5070;52.382;5.270;2023-09-12T13:08:47;26.10;92.20
10062;DHT22;5070;52.382;5.270;2023-09-12T13:11:16;26.10;92.20
10062;DHT22;5070;52.382;5.270;2023-09-12T13:13:45;26.10;92.40
10062;DHT22;5070;52.382;5.270;2023-09-12T13:16:16;26.10;92.60
10062;DHT22;5070;52.382;5.270;2023-09-12T13:18:44;26.20;92.70
10062;DHT22;5070;52.382;5.270;2023-09-12T13:21:12;26.20;92.60
10062;DHT22;5070;52.382;5.270;2023-09-12T13:23:40;26.20;92.70
10062;DHT22;5070;52.382;5.270;2023-09-12T13:26:09;26.20;92.90
10062;DHT22;5070;52.382;5.270;2023-09-12T13:28:38;26.20;93.00
10062;DHT22;5070;52.382;5.270;2023-09-12T13:31:06;26.20;93.20
10062;DHT22;5070;52.382;5.270;2023-09-12T13:33:36;26.20;93.20
10062;DHT22;5070;52.382;5.270;2023-09-12T13:36:04;26.20;93.00
10062;DHT22;5070;52.382;5.270;2023-09-12T13:38:32;26.20;93.10
10062;DHT22;5070;52.382;5.270;2023-09-12T13:41:00;26.20;93.30
10062;DHT22;5070;52.382;5.270;2023-09-12T13:43:30;26.30;93.70
10062;DHT22;5070;52.382;5.270;2023-09-12T13:45:58;26.30;93.30
10062;DHT22;5070;52.382;5.270;2023-09-12T13:48:26;26.30;93.10
10062;DHT22;5070;52.382;5.270;2023-09-12T13:50:56;26.30;93.00
10062;DHT22;5070;52.382;5.270;2023-09-12T13:53:24;26.30;93.10
10062;DHT22;5070;52.382;5.270;2023-09-12T13:55:52;26.30;93.20
10062;DHT22;5070;52.382;5.270;2023-09-12T13:58:20;26.30;93.10
10062;DHT22;5070;52.382;5.270;2023-09-12T14:00:49;26.30;93.20
10062;DHT22;5070;52.382;5.270;2023-09-12T14:03:18;26.30;93.20
10062;DHT22;5070;52.382;5.270;2023-09-12T14:05:47;26.30;93.00
10062;DHT22;5070;52.382;5.270;2023-09-12T14:08:17;26.30;93.20
10062;DHT22;5070;52.382;5.270;2023-09-12T14:10:47;26.30;93.20
10062;DHT22;5070;52.382;5.270;2023-09-12T14:13:16;26.30;93.20
10062;DHT22;5070;52.382;5.270;2023-09-12T14:15:48;26.30;93.20
10062;DHT22;5070;52.382;5.270;2023-09-12T14:18:19;26.30;93.20
10062;DHT22;5070;52.382;5.270;2023-09-12T14:20:48;26.30;92.70
10062;DHT22;5070;52.382;5.270;2023-09-12T14:23:21;26.30;92.90
10062;DHT22;5070;52.382;5.270;2023-09-12T14:25:49;26.30;92.50
10062;DHT22;5070;52.382;5.270;2023-09-12T14:28:19;26.30;92.60
10062;DHT22;5070;52.382;5.270;2023-09-12T14:30:50;26.30;92.30
10062;DHT22;5070;52.382;5.270;2023-09-12T14:33:19;26.30;92.70
10062;DHT22;5070;52.382;5.270;2023-09-12T14:35:47;26.30;92.70
10062;DHT22;5070;52.382;5.270;2023-09-12T14:38:17;26.30;93.00
10062;DHT22;5070;52.382;5.270;2023-09-12T14:40:47;26.30;93.00
10062;DHT22;5070;52.382;5.270;2023-09-12T14:43:15;26.30;92.60
10062;DHT22;5070;52.382;5.270;2023-09-12T14:45:43;26.30;92.30
10062;DHT22;5070;52.382;5.270;2023-09-12T14:48:11;26.30;92.30
10062;DHT22;5070;52.382;5.270;2023-09-12T14:50:40;26.30;92.20
10062;DHT22;5070;52.382;5.270;2023-09-12T14:53:12;26.30;92.40
10062;DHT22;5070;52.382;5.270;2023-09-12T14:55:41;26.30;91.90
10062;DHT22;5070;52.382;5.270;2023-09-12T14:58:11;26.30;91.80
10062;DHT22;5070;52.382;5.270;2023-09-12T15:00:39;26.30;91.80
10062;DHT22;5070;52.382;5.270;2023-09-12T15:03:07;26.30;92.50
10062;DHT22;5070;52.382;5.270;2023-09-12T15:05:35;26.30;91.90
10062;DHT22;5070;52.382;5.270;2023-09-12T15:08:03;26.30;91.90
10062;DHT22;5070;52.382;5.270;2023-09-12T15:10:33;26.30;91.80
10062;DHT22;5070;52.382;5.270;2023-09-12T15:13:01;26.30;92.00
10062;DHT22;5070;52.382;5.270;2023-09-12T15:15:31;26.30;92.40
10062;DHT22;5070;52.382;5.270;2023-09-12T15:17:59;26.30;92.00
10062;DHT22;5070;52.382;5.270;2023-09-12T15:20:28;26.30;92.00
10062;DHT22;5070;52.382;5.270;2023-09-12T15:22:56;26.30;91.80
10062;DHT22;5070;52.382;5.270;2023-09-12T15:25:24;26.30;91.70
10062;DHT22;5070;52.382;5.270;2023-09-12T15:27:52;26.30;91.80
10062;DHT22;5070;52.382;5.270;2023-09-12T15:30:21;26.30;91.80
10062;DHT22;5070;52.382;5.270;2023-09-12T15:32:50;26.30;91.80
10062;DHT22;5070;52.382;5.270;2023-09-12T15:35:20;26.30;91.70
10062;DHT22;5070;52.382;5.270;2023-09-12T15:37:48;26.30;91.40
10062;DHT22;5070;52.382;5.270;2023-09-12T15:40:18;26.20;91.50
10062;DHT22;5070;52.382;5.270;2023-09-12T15:42:46;26.20;91.20
10062;DHT22;5070;52.382;5.270;2023-09-12T15:45:14;26.20;91.20
10062;DHT22;5070;52.382;5.270;2023-09-12T15:47:44;26.20;91.30
10062;DHT22;5070;52.382;5.270;2023-09-12T15:50:14;26.20;91.40
10062;DHT22;5070;52.382;5.270;2023-09-12T15:52:44;26.10;91.30
10062;DHT22;5070;52.382;5.270;2023-09-12T15:55:12;26.10;91.30
10062;DHT22;5070;52.382;5.270;2023-09-12T15:57:41;26.10;91.30
10062;DHT22;5070;52.382;5.270;2023-09-12T16:00:11;26.10;91.40
10062;DHT22;5070;52.382;5.270;2023-09-12T16:02:41;26.10;91.50